sensor_id;sensor_type;location;lat;lon;timestamp;pressure;altitude;pressure_sealevel;temperature;humidity
16016;BME280;8112;53.592;10.184;2023-06-22T00:03:27;101667.75;;;17.94;100.00
16016;BME280;8112;53.592;10.184;2023-06-22T00:08:29;101661.00;;;18.02;100.00
16016;BME280;8112;53.592;10.184;2023-06-22T00:13:32;101656.91;;;18.09;100.00
16016;BME280;8112;53.592;10.184;2023-06-22T00:18:34;101659.34;;;18.12;100.00
16016;BME280;8112;53.592;10.184;2023-06-22T00:23:35;101655.63;;;18.60;100.00
16016;BME280;8112;53.592;10.184;2023-06-22T00:28:38;101652.97;;;18.60;100.00
16016;BME280;8112;53.592;10.184;2023-06-22T00:33:40;101655.38;;;18.29;100.00
16016;BME280;8112;53.592;10.184;2023-06-22T00:38:42;101659.34;;;17.88;100.00
16016;BME280;8112;53.592;10.184;2023-06-22T00:43:45;101670.19;;;17.73;100.00
16016;BME280;8112;53.592;10.184;2023-06-22T00:48:47;101668.47;;;17.85;100.00
16016;BME280;8112;53.592;10.184;2023-06-22T00:53:49;101671.31;;;18.06;100.00
16016;BME280;8112;53.592;10.184;2023-06-22T00:58:53;101677.00;;;18.60;100.00
16016;BME280;8112;53.592;10.184;2023-06-22T01:03:55;101672.50;;;18.72;100.00
16016;BME280;8112;53.592;10.184;2023-06-22T01:09:03;101674.09;;;18.63;100.00
16016;BME280;8112;53.592;10.184;2023-06-22T01:14:13;101667.00;;;18.28;100.00
16016;BME280;8112;53.592;10.184;2023-06-22T01:19:28;101668.38;;;17.98;100.00
16016;BME280;8112;53.592;10.184;2023-06-22T01:24:34;101677.03;;;17.77;100.00
16016;BME280;8112;53.592;10.184;2023-06-22T01:29:43;101668.22;;;17.88;100.00
16016;BME280;8112;53.592;10.184;2023-06-22T01:34:45;101671.81;;;17.76;100.00
16016;BME280;8112;53.592;10.184;2023-06-22T01:39:48;101659.44;;;17.50;100.00
16016;BME280;8112;53.592;10.184;2023-06-22T01:44:52;101669.69;;;17.57;100.00
16016;BME280;8112;53.592;10.184;2023-06-22T01:49:54;101658.16;;;17.56;100.00
16016;BME280;8112;53.592;10.184;2023-06-22T01:54:56;101669.88;;;17.53;100.00
16016;BME280;8112;53.592;10.184;2023-06-22T02:00:02;101673.00;;;17.47;100.00
16016;BME280;8112;53.592;10.184;2023-06-22T02:05:16;101661.94;;;17.41;100.00
16016;BME280;8112;53.592;10.184;2023-06-22T02:10:20;101665.97;;;17.46;100.00
16016;BME280;8112;53.592;10.184;2023-06-22T02:15:25;101668.41;;;17.49;100.00
16016;BME280;8112;53.592;10.184;2023-06-22T02:20:29;101673.22;;;17.44;100.00
16016;BME280;8112;53.592;10.184;2023-06-22T02:25:30;101670.81;;;17.28;100.00
16016;BME280;8112;53.592;10.184;2023-06-22T02:30:34;101664.56;;;17.16;100.00
16016;BME280;8112;53.592;10.184;2023-06-22T02:35:36;101662.13;;;17.13;100.00
16016;BME280;8112;53.592;10.184;2023-06-22T02:40:37;101649.38;;;17.05;100.00
16016;BME280;8112;53.592;10.184;2023-06-22T02:45:41;101654.16;;;17.13;100.00
16016;BME280;8112;53.592;10.184;2023-06-22T02:50:43;101659.91;;;17.44;100.00
16016;BME280;8112;53.592;10.184;2023-06-22T02:55:44;101651.28;;;17.41;100.00
16016;BME280;8112;53.592;10.184;2023-06-22T03:00:47;101652.00;;;17.18;100.00
16016;BME280;8112;53.592;10.184;2023-06-22T03:05:53;101665.16;;;17.33;100.00
16016;BME280;8112;53.592;10.184;2023-06-22T03:10:57;101671.38;;;17.58;100.00
16016;BME280;8112;53.592;10.184;2023-06-22T03:16:00;101663.41;;;17.69;100.00
16016;BME280;8112;53.592;10.184;2023-06-22T03:21:02;101668.19;;;17.52;100.00
16016;BME280;8112;53.592;10.184;2023-06-22T03:26:05;101665.69;;;17.62;100.00
16016;BME280;8112;53.592;10.184;2023-06-22T03:31:08;101664.56;;;17.16;100.00
16016;BME280;8112;53.592;10.184;2023-06-22T03:36:12;101677.84;;;17.05;100.00
16016;BME280;8112;53.592;10.184;2023-06-22T03:41:14;101683.44;;;17.13;100.00
16016;BME280;8112;53.592;10.184;2023-06-22T03:46:18;101686.19;;;17.24;100.00
16016;BME280;8112;53.592;10.184;2023-06-22T03:51:20;101696.72;;;17.39;100.00
16016;BME280;8112;53.592;10.184;2023-06-22T03:56:22;101696.50;;;17.66;100.00
16016;BME280;8112;53.592;10.184;2023-06-22T04:01:25;101694.50;;;17.93;100.00
16016;BME280;8112;53.592;10.184;2023-06-22T04:06:26;101699.41;;;18.35;100.00
16016;BME280;8112;53.592;10.184;2023-06-22T04:11:28;101702.97;;;18.58;100.00
16016;BME280;8112;53.592;10.184;2023-06-22T04:16:32;101695.38;;;18.99;100.00
16016;BME280;8112;53.592;10.184;2023-06-22T04:21:34;101704.78;;;19.26;100.00
16016;BME280;8112;53.592;10.184;2023-06-22T04:26:37;101697.13;;;19.44;100.00
16016;BME280;8112;53.592;10.184;2023-06-22T04:31:43;101701.94;;;19.62;100.00
16016;BME280;8112;53.592;10.184;2023-06-22T04:36:44;101695.53;;;19.74;100.00
16016;BME280;8112;53.592;10.184;2023-06-22T04:41:46;101693.94;;;19.83;100.00
16016;BME280;8112;53.592;10.184;2023-06-22T04:46:49;101685.78;;;19.85;100.00
16016;BME280;8112;53.592;10.184;2023-06-22T04:51:54;101696.03;;;19.79;100.00
16016;BME280;8112;53.592;10.184;2023-06-22T04:56:55;101693.06;;;19.94;100.00
16016;BME280;8112;53.592;10.184;2023-06-22T05:02:00;101681.28;;;20.18;100.00
16016;BME280;8112;53.592;10.184;2023-06-22T05:07:03;101677.47;;;20.42;100.00
16016;BME280;8112;53.592;10.184;2023-06-22T05:12:06;101687.91;;;20.45;100.00
16016;BME280;8112;53.592;10.184;2023-06-22T05:17:10;101690.84;;;20.42;100.00
16016;BME280;8112;53.592;10.184;2023-06-22T05:22:14;101692.56;;;20.74;100.00
16016;BME280;8112;53.592;10.184;2023-06-22T05:27:16;101690.06;;;21.23;100.00
16016;BME280;8112;53.592;10.184;2023-06-22T05:32:19;101688.41;;;21.42;100.00
16016;BME280;8112;53.592;10.184;2023-06-22T05:37:21;101692.22;;;21.59;100.00
16016;BME280;8112;53.592;10.184;2023-06-22T05:42:23;101693.41;;;21.96;100.00
16016;BME280;8112;53.592;10.184;2023-06-22T05:47:27;101693.66;;;22.22;100.00
16016;BME280;8112;53.592;10.184;2023-06-22T05:52:28;101695.28;;;22.43;100.00
16016;BME280;8112;53.592;10.184;2023-06-22T05:57:30;101688.09;;;22.43;100.00
16016;BME280;8112;53.592;10.184;2023-06-22T06:02:33;101677.84;;;22.67;100.00
16016;BME280;8112;53.592;10.184;2023-06-22T06:07:36;101674.59;;;23.29;100.00
16016;BME280;8112;53.592;10.184;2023-06-22T06:12:38;101673.31;;;22.95;100.00
16016;BME280;8112;53.592;10.184;2023-06-22T06:17:46;101675.72;;;22.98;100.00
16016;BME280;8112;53.592;10.184;2023-06-22T06:22:48;101671.03;;;23.28;100.00
16016;BME280;8112;53.592;10.184;2023-06-22T06:27:51;101670.09;;;23.92;100.00
16016;BME280;8112;53.592;10.184;2023-06-22T06:32:56;101661.63;;;24.05;100.00
16016;BME280;8112;53.592;10.184;2023-06-22T06:37:57;101671.00;;;24.19;100.00
16016;BME280;8112;53.592;10.184;2023-06-22T06:42:59;101660.13;;;24.29;100.00
16016;BME280;8112;53.592;10.184;2023-06-22T06:48:03;101661.97;;;23.84;100.00
16016;BME280;8112;53.592;10.184;2023-06-22T06:53:04;101658.28;;;23.85;100.00
16016;BME280;8112;53.592;10.184;2023-06-22T06:58:06;101658.91;;;24.23;100.00
16016;BME280;8112;53.592;10.184;2023-06-22T07:03:11;101653.56;;;24.31;100.00
16016;BME280;8112;53.592;10.184;2023-06-22T07:08:13;101655.56;;;24.03;100.00
16016;BME280;8112;53.592;10.184;2023-06-22T07:13:14;101654.84;;;23.56;100.00
16016;BME280;8112;53.592;10.184;2023-06-22T07:18:17;101653.38;;;23.62;100.00
16016;BME280;8112;53.592;10.184;2023-06-22T07:23:19;101662.53;;;24.14;100.00
16016;BME280;8112;53.592;10.184;2023-06-22T07:28:21;101659.09;;;24.91;100.00
16016;BME280;8112;53.592;10.184;2023-06-22T07:33:24;101664.09;;;25.37;100.00
16016;BME280;8112;53.592;10.184;2023-06-22T07:38:25;101661.19;;;25.22;100.00
16016;BME280;8112;53.592;10.184;2023-06-22T07:43:27;101657.63;;;25.13;100.00
16016;BME280;8112;53.592;10.184;2023-06-22T07:48:32;101654.47;;;25.43;100.00
16016;BME280;8112;53.592;10.184;2023-06-22T07:53:33;101658.06;;;25.76;100.00
16016;BME280;8112;53.592;10.184;2023-06-22T07:58:36;101653.00;;;25.57;100.00
16016;BME280;8112;53.592;10.184;2023-06-22T08:03:39;101656.53;;;25.99;100.00
16016;BME280;8112;53.592;10.184;2023-06-22T08:08:41;101656.00;;;26.12;100.00
16016;BME280;8112;53.592;10.184;2023-06-22T08:13:43;101653.66;;;26.25;100.00
16016;BME280;8112;53.592;10.184;2023-06-22T08:18:47;101655.13;;;26.44;100.00
16016;BME280;8112;53.592;10.184;2023-06-22T08:23:48;101647.59;;;27.03;100.00
16016;BME280;8112;53.592;10.184;2023-06-22T08:28:50;101654.75;;;27.74;100.00
16016;BME280;8112;53.592;10.184;2023-06-22T08:33:54;101637.94;;;27.79;100.00
16016;BME280;8112;53.592;10.184;2023-06-22T08:38:56;101636.72;;;27.66;100.00
16016;BME280;8112;53.592;10.184;2023-06-22T08:44:01;101639.31;;;27.51;100.00
16016;BME280;8112;53.592;10.184;2023-06-22T08:49:05;101638.31;;;27.52;100.00
16016;BME280;8112;53.592;10.184;2023-06-22T08:54:08;101634.56;;;27.77;100.00
16016;BME280;8112;53.592;10.184;2023-06-22T08:59:10;101624.59;;;27.92;100.00
16016;BME280;8112;53.592;10.184;2023-06-22T09:04:14;101625.25;;;27.79;100.00
16016;BME280;8112;53.592;10.184;2023-06-22T09:09:16;101624.38;;;27.79;100.00
16016;BME280;8112;53.592;10.184;2023-06-22T09:14:18;101614.78;;;27.91;100.00
16016;BME280;8112;53.592;10.184;2023-06-22T09:19:21;101607.25;;;28.01;100.00
16016;BME280;8112;53.592;10.184;2023-06-22T09:24:23;101602.56;;;27.95;100.00
16016;BME280;8112;53.592;10.184;2023-06-22T09:29:25;101594.47;;;28.10;100.00
16016;BME280;8112;53.592;10.184;2023-06-22T09:34:28;101592.88;;;28.16;100.00
16016;BME280;8112;53.592;10.184;2023-06-22T09:39:31;101596.69;;;28.07;100.00
16016;BME280;8112;53.592;10.184;2023-06-22T09:44:33;101583.66;;;27.72;100.00
16016;BME280;8112;53.592;10.184;2023-06-22T09:49:36;101583.41;;;28.12;100.00
16016;BME280;8112;53.592;10.184;2023-06-22T09:54:38;101571.00;;;28.02;100.00
16016;BME280;8112;53.592;10.184;2023-06-22T09:59:41;101576.41;;;28.33;100.00
16016;BME280;8112;53.592;10.184;2023-06-22T10:04:44;101569.38;;;28.53;100.00
16016;BME280;8112;53.592;10.184;2023-06-22T10:09:47;101578.59;;;28.22;100.00
16016;BME280;8112;53.592;10.184;2023-06-22T10:14:48;101566.75;;;28.60;100.00
16016;BME280;8112;53.592;10.184;2023-06-22T10:19:51;101562.47;;;28.87;100.00
16016;BME280;8112;53.592;10.184;2023-06-22T10:24:53;101565.75;;;28.46;100.00
16016;BME280;8112;53.592;10.184;2023-06-22T10:29:55;101558.66;;;28.15;100.00
16016;BME280;8112;53.592;10.184;2023-06-22T10:34:58;101555.97;;;28.67;100.00
16016;BME280;8112;53.592;10.184;2023-06-22T10:39:59;101548.03;;;29.02;100.00
16016;BME280;8112;53.592;10.184;2023-06-22T10:45:01;101547.44;;;28.70;100.00
16016;BME280;8112;53.592;10.184;2023-06-22T10:50:06;101529.56;;;28.54;100.00
16016;BME280;8112;53.592;10.184;2023-06-22T10:55:08;101524.38;;;29.18;100.00
16016;BME280;8112;53.592;10.184;2023-06-22T11:00:11;101530.13;;;29.58;93.18
16016;BME280;8112;53.592;10.184;2023-06-22T11:05:14;101521.47;;;29.76;95.17
16016;BME280;8112;53.592;10.184;2023-06-22T11:10:16;101521.53;;;29.83;94.50
16016;BME280;8112;53.592;10.184;2023-06-22T11:15:18;101516.75;;;30.34;95.10
16016;BME280;8112;53.592;10.184;2023-06-22T11:20:21;101500.56;;;30.12;97.38
16016;BME280;8112;53.592;10.184;2023-06-22T11:25:23;101510.28;;;29.99;94.87
16016;BME280;8112;53.592;10.184;2023-06-22T11:30:24;101505.63;;;29.23;98.00
16016;BME280;8112;53.592;10.184;2023-06-22T11:35:27;101512.91;;;28.94;100.00
16016;BME280;8112;53.592;10.184;2023-06-22T11:40:29;101506.19;;;28.53;98.87
16016;BME280;8112;53.592;10.184;2023-06-22T11:45:31;101502.38;;;28.47;100.00
16016;BME280;8112;53.592;10.184;2023-06-22T11:50:34;101508.41;;;28.64;100.00
16016;BME280;8112;53.592;10.184;2023-06-22T11:55:36;101483.81;;;28.66;100.00
16016;BME280;8112;53.592;10.184;2023-06-22T12:00:38;101489.69;;;28.69;100.00
16016;BME280;8112;53.592;10.184;2023-06-22T12:05:41;101481.91;;;28.81;100.00
16016;BME280;8112;53.592;10.184;2023-06-22T12:10:42;101470.53;;;28.93;98.51
16016;BME280;8112;53.592;10.184;2023-06-22T12:15:44;101466.19;;;28.55;100.00
16016;BME280;8112;53.592;10.184;2023-06-22T12:20:47;101456.47;;;29.11;100.00
16016;BME280;8112;53.592;10.184;2023-06-22T12:25:49;101446.19;;;29.35;96.18
16016;BME280;8112;53.592;10.184;2023-06-22T12:30:51;101444.91;;;29.59;100.00
16016;BME280;8112;53.592;10.184;2023-06-22T12:35:54;101430.94;;;29.62;100.00
16016;BME280;8112;53.592;10.184;2023-06-22T12:40:55;101429.72;;;29.36;100.00
16016;BME280;8112;53.592;10.184;2023-06-22T12:45:57;101431.66;;;29.14;95.03
16016;BME280;8112;53.592;10.184;2023-06-22T12:51:00;101434.66;;;29.26;100.00
16016;BME280;8112;53.592;10.184;2023-06-22T12:56:02;101420.13;;;29.40;97.71
16016;BME280;8112;53.592;10.184;2023-06-22T13:01:04;101422.22;;;29.73;100.00
16016;BME280;8112;53.592;10.184;2023-06-22T13:06:07;101418.28;;;29.83;100.00
16016;BME280;8112;53.592;10.184;2023-06-22T13:11:09;101414.88;;;29.67;100.00
16016;BME280;8112;53.592;10.184;2023-06-22T13:16:10;101418.50;;;29.81;100.00
16016;BME280;8112;53.592;10.184;2023-06-22T13:21:14;101413.47;;;29.78;100.00
16016;BME280;8112;53.592;10.184;2023-06-22T13:26:16;101421.19;;;29.81;100.00
16016;BME280;8112;53.592;10.184;2023-06-22T13:31:17;101415.47;;;29.63;100.00
16016;BME280;8112;53.592;10.184;2023-06-22T13:36:20;101402.63;;;29.85;100.00
16016;BME280;8112;53.592;10.184;2023-06-22T13:41:23;101409.09;;;29.84;99.97
16016;BME280;8112;53.592;10.184;2023-06-22T13:46:25;101396.63;;;29.54;100.00
16016;BME280;8112;53.592;10.184;2023-06-22T13:51:28;101393.31;;;29.24;100.00
16016;BME280;8112;53.592;10.184;2023-06-22T13:56:30;101377.91;;;28.96;100.00
16016;BME280;8112;53.592;10.184;2023-06-22T14:01:31;101371.19;;;28.70;100.00
16016;BME280;8112;53.592;10.184;2023-06-22T14:06:35;101363.06;;;28.92;100.00
16016;BME280;8112;53.592;10.184;2023-06-22T14:11:37;101367.19;;;29.58;100.00
16016;BME280;8112;53.592;10.184;2023-06-22T14:16:38;101367.72;;;29.89;100.00
16016;BME280;8112;53.592;10.184;2023-06-22T14:21:41;101358.22;;;29.64;100.00
16016;BME280;8112;53.592;10.184;2023-06-22T14:26:43;101354.94;;;28.70;100.00
16016;BME280;8112;53.592;10.184;2023-06-22T14:31:46;101358.13;;;28.52;100.00
16016;BME280;8112;53.592;10.184;2023-06-22T14:36:49;101347.72;;;28.12;100.00
16016;BME280;8112;53.592;10.184;2023-06-22T14:41:50;101334.28;;;27.82;100.00
16016;BME280;8112;53.592;10.184;2023-06-22T14:46:52;101336.00;;;27.23;100.00
16016;BME280;8112;53.592;10.184;2023-06-22T14:51:55;101339.53;;;26.93;100.00
16016;BME280;8112;53.592;10.184;2023-06-22T14:56:57;101325.88;;;26.71;100.00
16016;BME280;8112;53.592;10.184;2023-06-22T15:01:58;101324.53;;;26.91;100.00
16016;BME280;8112;53.592;10.184;2023-06-22T15:07:01;101324.41;;;26.84;100.00
16016;BME280;8112;53.592;10.184;2023-06-22T15:12:04;101318.84;;;26.85;100.00
16016;BME280;8112;53.592;10.184;2023-06-22T15:17:08;101312.53;;;26.70;100.00
16016;BME280;8112;53.592;10.184;2023-06-22T15:22:11;101298.84;;;26.71;100.00
16016;BME280;8112;53.592;10.184;2023-06-22T15:27:13;101294.84;;;26.67;100.00
16016;BME280;8112;53.592;10.184;2023-06-22T15:32:15;101292.00;;;26.45;100.00
16016;BME280;8112;53.592;10.184;2023-06-22T15:37:18;101278.44;;;26.30;100.00
16016;BME280;8112;53.592;10.184;2023-06-22T15:42:20;101280.22;;;26.15;100.00
16016;BME280;8112;53.592;10.184;2023-06-22T15:47:21;101273.25;;;25.97;100.00
16016;BME280;8112;53.592;10.184;2023-06-22T15:52:24;101267.28;;;25.87;100.00
16016;BME280;8112;53.592;10.184;2023-06-22T15:57:27;101264.94;;;25.84;100.00
16016;BME280;8112;53.592;10.184;2023-06-22T16:02:29;101242.84;;;25.80;100.00
16016;BME280;8112;53.592;10.184;2023-06-22T16:07:32;101243.69;;;25.57;100.00
16016;BME280;8112;53.592;10.184;2023-06-22T16:12:35;101241.34;;;25.46;100.00
16016;BME280;8112;53.592;10.184;2023-06-22T16:17:37;101218.31;;;25.35;100.00
16016;BME280;8112;53.592;10.184;2023-06-22T16:22:40;101221.00;;;25.35;100.00
16016;BME280;8112;53.592;10.184;2023-06-22T16:27:43;101223.75;;;25.27;100.00
16016;BME280;8112;53.592;10.184;2023-06-22T16:32:52;101224.91;;;24.93;100.00
16016;BME280;8112;53.592;10.184;2023-06-22T16:37:55;101219.56;;;25.16;100.00
16016;BME280;8112;53.592;10.184;2023-06-22T16:42:57;101216.31;;;25.29;100.00
16016;BME280;8112;53.592;10.184;2023-06-22T16:47:59;101218.03;;;25.22;100.00
16016;BME280;8112;53.592;10.184;2023-06-22T16:53:02;101208.31;;;25.12;100.00
16016;BME280;8112;53.592;10.184;2023-06-22T16:58:04;101209.28;;;25.19;100.00
16016;BME280;8112;53.592;10.184;2023-06-22T17:03:07;101212.69;;;25.13;100.00
16016;BME280;8112;53.592;10.184;2023-06-22T17:08:12;101212.28;;;25.25;100.00
16016;BME280;8112;53.592;10.184;2023-06-22T17:13:15;101208.66;;;25.09;100.00
16016;BME280;8112;53.592;10.184;2023-06-22T17:18:18;101210.28;;;24.79;100.00
16016;BME280;8112;53.592;10.184;2023-06-22T17:23:23;101196.03;;;24.45;100.00
16016;BME280;8112;53.592;10.184;2023-06-22T17:28:25;101190.00;;;24.34;100.00
16016;BME280;8112;53.592;10.184;2023-06-22T17:33:27;101192.22;;;24.14;100.00
16016;BME280;8112;53.592;10.184;2023-06-22T17:38:31;101191.19;;;23.90;100.00
16016;BME280;8112;53.592;10.184;2023-06-22T17:43:32;101179.38;;;23.58;100.00
16016;BME280;8112;53.592;10.184;2023-06-22T17:48:34;101166.56;;;23.36;100.00
16016;BME280;8112;53.592;10.184;2023-06-22T17:53:37;101161.69;;;23.31;100.00
16016;BME280;8112;53.592;10.184;2023-06-22T17:58:39;101161.69;;;23.31;100.00
16016;BME280;8112;53.592;10.184;2023-06-22T18:03:40;101173.44;;;23.30;100.00
16016;BME280;8112;53.592;10.184;2023-06-22T18:08:44;101185.88;;;23.31;100.00
16016;BME280;8112;53.592;10.184;2023-06-22T18:13:47;101208.66;;;23.18;100.00
16016;BME280;8112;53.592;10.184;2023-06-22T18:18:49;101201.56;;;23.09;100.00
16016;BME280;8112;53.592;10.184;2023-06-22T18:23:52;101194.00;;;23.04;100.00
16016;BME280;8112;53.592;10.184;2023-06-22T18:28:56;101183.59;;;23.10;100.00
16016;BME280;8112;53.592;10.184;2023-06-22T18:33:58;101182.38;;;23.04;100.00
16016;BME280;8112;53.592;10.184;2023-06-22T18:39:02;101175.31;;;22.95;100.00
16016;BME280;8112;53.592;10.184;2023-06-22T18:44:11;101156.91;;;22.73;100.00
16016;BME280;8112;53.592;10.184;2023-06-22T18:49:14;101141.59;;;22.66;100.00
16016;BME280;8112;53.592;10.184;2023-06-22T18:54:21;101128.81;;;22.59;100.00
16016;BME280;8112;53.592;10.184;2023-06-22T18:59:50;101105.69;;;22.40;100.00
16016;BME280;8112;53.592;10.184;2023-06-22T19:05:06;101092.97;;;22.42;100.00
16016;BME280;8112;53.592;10.184;2023-06-22T19:10:23;101102.22;;;22.48;100.00
16016;BME280;8112;53.592;10.184;2023-06-22T19:15:30;101090.78;;;22.46;100.00
16016;BME280;8112;53.592;10.184;2023-06-22T19:20:34;101100.16;;;22.42;100.00
16016;BME280;8112;53.592;10.184;2023-06-22T19:25:44;101107.34;;;22.41;100.00
16016;BME280;8112;53.592;10.184;2023-06-22T19:30:47;101109.19;;;22.32;100.00
16016;BME280;8112;53.592;10.184;2023-06-22T19:35:50;101118.31;;;22.21;100.00
16016;BME280;8112;53.592;10.184;2023-06-22T19:40:53;101115.06;;;22.10;100.00
16016;BME280;8112;53.592;10.184;2023-06-22T19:45:55;101118.16;;;22.15;100.00
16016;BME280;8112;53.592;10.184;2023-06-22T19:51:02;101123.13;;;22.10;100.00
16016;BME280;8112;53.592;10.184;2023-06-22T19:56:06;101126.19;;;22.15;100.00
16016;BME280;8112;53.592;10.184;2023-06-22T20:01:08;101130.44;;;21.99;100.00
16016;BME280;8112;53.592;10.184;2023-06-22T20:06:10;101117.94;;;21.90;100.00
16016;BME280;8112;53.592;10.184;2023-06-22T20:11:14;101117.63;;;21.93;100.00
16016;BME280;8112;53.592;10.184;2023-06-22T20:16:16;101116.22;;;21.81;100.00
16016;BME280;8112;53.592;10.184;2023-06-22T20:21:19;101123.34;;;21.72;100.00
16016;BME280;8112;53.592;10.184;2023-06-22T20:26:22;101119.56;;;21.64;100.00
16016;BME280;8112;53.592;10.184;2023-06-22T20:31:27;101116.28;;;21.53;100.00
16016;BME280;8112;53.592;10.184;2023-06-22T20:36:29;101111.16;;;21.41;100.00
16016;BME280;8112;53.592;10.184;2023-06-22T20:41:34;101115.25;;;21.17;100.00
16016;BME280;8112;53.592;10.184;2023-06-22T20:46:35;101131.00;;;20.64;100.00
16016;BME280;8112;53.592;10.184;2023-06-22T20:51:37;101133.13;;;20.23;100.00
16016;BME280;8112;53.592;10.184;2023-06-22T20:56:40;101147.94;;;19.88;100.00
16016;BME280;8112;53.592;10.184;2023-06-22T21:01:42;101159.19;;;19.32;100.00
16016;BME280;8112;53.592;10.184;2023-06-22T21:06:46;101165.28;;;19.03;100.00
16016;BME280;8112;53.592;10.184;2023-06-22T21:11:49;101164.78;;;18.36;100.00
16016;BME280;8112;53.592;10.184;2023-06-22T21:16:51;101167.47;;;17.49;100.00
16016;BME280;8112;53.592;10.184;2023-06-22T21:21:56;101171.41;;;17.00;100.00
16016;BME280;8112;53.592;10.184;2023-06-22T21:26:59;101181.06;;;16.78;100.00
16016;BME280;8112;53.592;10.184;2023-06-22T21:32:01;101171.16;;;16.69;100.00
16016;BME280;8112;53.592;10.184;2023-06-22T21:37:08;101168.13;;;16.62;100.00
16016;BME280;8112;53.592;10.184;2023-06-22T21:42:14;101157.22;;;16.53;100.00
16016;BME280;8112;53.592;10.184;2023-06-22T21:47:15;101161.72;;;16.53;100.00
16016;BME280;8112;53.592;10.184;2023-06-22T21:52:17;101152.78;;;16.54;100.00
16016;BME280;8112;53.592;10.184;2023-06-22T21:57:20;101154.81;;;16.73;100.00
16016;BME280;8112;53.592;10.184;2023-06-22T22:02:26;101168.97;;;16.74;100.00
16016;BME280;8112;53.592;10.184;2023-06-22T22:07:28;101170.19;;;16.81;100.00
16016;BME280;8112;53.592;10.184;2023-06-22T22:12:32;101178.16;;;16.81;100.00
16016;BME280;8112;53.592;10.184;2023-06-22T22:17:34;101191.59;;;16.91;100.00
16016;BME280;8112;53.592;10.184;2023-06-22T22:22:36;101206.25;;;16.96;100.00
16016;BME280;8112;53.592;10.184;2023-06-22T22:27:39;101220.66;;;16.94;100.00
16016;BME280;8112;53.592;10.184;2023-06-22T22:32:41;101237.09;;;16.88;100.00
16016;BME280;8112;53.592;10.184;2023-06-22T22:37:43;101236.50;;;16.95;100.00
16016;BME280;8112;53.592;10.184;2023-06-22T22:42:46;101251.28;;;17.00;100.00
16016;BME280;8112;53.592;10.184;2023-06-22T22:47:48;101267.63;;;17.06;100.00
16016;BME280;8112;53.592;10.184;2023-06-22T22:52:49;101284.72;;;17.27;100.00
16016;BME280;8112;53.592;10.184;2023-06-22T22:57:52;101301.53;;;17.27;100.00
16016;BME280;8112;53.592;10.184;2023-06-22T23:02:54;101310.63;;;17.24;100.00
16016;BME280;8112;53.592;10.184;2023-06-22T23:07:58;101329.75;;;17.30;100.00
16016;BME280;8112;53.592;10.184;2023-06-22T23:13:02;101322.84;;;17.27;100.00
16016;BME280;8112;53.592;10.184;2023-06-22T23:18:04;101303.47;;;17.25;100.00
16016;BME280;8112;53.592;10.184;2023-06-22T23:23:09;101292.22;;;17.21;100.00
16016;BME280;8112;53.592;10.184;2023-06-22T23:28:18;101297.06;;;17.28;100.00
16016;BME280;8112;53.592;10.184;2023-06-22T23:33:27;101277.22;;;17.09;100.00
16016;BME280;8112;53.592;10.184;2023-06-22T23:38:47;101288.34;;;17.03;100.00
16016;BME280;8112;53.592;10.184;2023-06-22T23:43:56;101308.38;;;16.95;100.00
16016;BME280;8112;53.592;10.184;2023-06-22T23:49:01;101310.81;;;16.99;100.00
16016;BME280;8112;53.592;10.184;2023-06-22T23:54:14;101321.03;;;17.05;100.00
16016;BME280;8112;53.592;10.184;2023-06-22T23:59:37;101312.78;;;17.08;100.00
